createdAt,value
2022-12-16T00:04:42.505Z,-0.64
2022-12-16T00:15:12.123Z,-0.53
2022-12-16T00:25:39.502Z,-0.47
2022-12-16T00:36:08.376Z,-0.43
2022-12-16T00:46:35.887Z,-0.41
2022-12-16T00:57:03.907Z,-0.38
2022-12-16T01:07:31.864Z,-0.41
2022-12-16T01:17:59.763Z,-0.50
2022-12-16T01:28:27.760Z,-0.51
2022-12-16T01:38:55.900Z,-0.60
2022-12-16T01:49:27.540Z,-0.56
2022-12-16T01:59:57.010Z,-0.65
2022-12-16T02:10:36.908Z,-0.52
2022-12-16T02:21:29.069Z,-0.43
2022-12-16T02:32:05.158Z,-0.45
2022-12-16T02:42:37.233Z,-0.45
2022-12-16T02:53:05.623Z,-0.38
2022-12-16T03:03:41.874Z,-0.26
2022-12-16T03:14:11.970Z,-0.35
2022-12-16T03:24:40.327Z,-0.40
2022-12-16T03:35:17.327Z,-0.41
2022-12-16T03:45:46.949Z,-0.48
2022-12-16T03:56:14.863Z,-0.49
2022-12-16T04:06:42.309Z,-0.31
2022-12-16T04:17:32.200Z,-0.43
2022-12-16T04:27:59.845Z,-0.45
2022-12-16T04:38:44.794Z,-0.49
2022-12-16T04:49:29.592Z,-0.44
2022-12-16T05:00:14.480Z,-0.48
2022-12-16T05:11:01.653Z,-0.52
2022-12-16T05:21:46.245Z,-0.62
2022-12-16T05:32:30.813Z,-0.77
2022-12-16T05:43:16.996Z,-0.84
2022-12-16T05:54:01.984Z,-0.94
2022-12-16T06:04:58.335Z,-0.98
2022-12-16T06:15:43.108Z,-0.81
2022-12-16T06:26:28.254Z,-1.02
2022-12-16T06:37:13.399Z,-0.99
2022-12-16T06:48:01.150Z,-0.87
2022-12-16T06:58:45.751Z,-0.89
2022-12-16T07:09:30.805Z,-0.97
2022-12-16T07:20:15.709Z,-1.00
2022-12-16T07:31:02.737Z,-0.93
2022-12-16T07:41:47.777Z,-0.80
2022-12-16T07:52:41.441Z,-0.84
2022-12-16T08:03:26.453Z,-0.72
2022-12-16T08:14:11.500Z,-0.67
2022-12-16T08:24:56.387Z,-0.60
2022-12-16T08:35:41.575Z,-0.46
2022-12-16T08:46:26.705Z,-0.26
2022-12-16T08:57:11.684Z,-0.09
2022-12-16T09:07:56.566Z,0.15
2022-12-16T09:18:41.580Z,0.25
2022-12-16T09:29:26.282Z,0.41
2022-12-16T09:40:10.995Z,0.65
2022-12-16T09:50:58.665Z,0.81
2022-12-16T10:01:45.106Z,0.92
2022-12-16T10:12:37.251Z,1.03
2022-12-16T10:23:28.924Z,0.98
2022-12-16T10:34:14.208Z,1.18
2022-12-16T10:45:11.302Z,1.25
2022-12-16T10:56:09.475Z,0.92
2022-12-16T11:07:00.276Z,0.85
2022-12-16T11:17:46.588Z,0.95
2022-12-16T11:28:34.466Z,1.23
2022-12-16T11:39:20.564Z,1.52
2022-12-16T11:50:05.627Z,1.58
2022-12-16T12:00:52.854Z,1.63
2022-12-16T12:11:43.031Z,1.48
2022-12-16T12:22:37.554Z,1.59
2022-12-16T12:33:37.687Z,1.49
2022-12-16T12:44:42.438Z,1.48
2022-12-16T12:55:38.681Z,1.61
2022-12-16T13:06:24.509Z,1.62
2022-12-16T13:17:26.174Z,1.61
2022-12-16T13:28:16.242Z,1.54
2022-12-16T13:39:07.382Z,1.74
2022-12-16T13:50:09.370Z,1.85
2022-12-16T14:01:00.513Z,2.08
2022-12-16T14:12:04.101Z,2.30
2022-12-16T14:23:10.802Z,2.21
2022-12-16T14:33:55.646Z,1.97
2022-12-16T14:44:43.163Z,1.71
2022-12-16T14:55:37.439Z,1.60
2022-12-16T15:06:25.437Z,1.42
2022-12-16T15:17:12.820Z,1.17
2022-12-16T15:27:58.601Z,1.07
2022-12-16T15:38:45.657Z,0.91
2022-12-16T15:49:39.736Z,0.78
2022-12-16T16:00:40.678Z,0.73
2022-12-16T16:11:26.531Z,0.65
2022-12-16T16:22:11.726Z,0.59
2022-12-16T16:32:56.503Z,0.65
2022-12-16T16:43:41.598Z,0.63
2022-12-16T16:54:26.704Z,0.71
2022-12-16T17:05:11.555Z,0.76
2022-12-16T17:15:57.062Z,0.79
2022-12-16T17:26:42.488Z,0.85
2022-12-16T17:37:27.144Z,0.72
2022-12-16T17:48:12.067Z,0.46
2022-12-16T17:58:57.717Z,0.32
2022-12-16T18:09:42.845Z,0.35
2022-12-16T18:20:29.043Z,0.37
2022-12-16T18:31:14.009Z,0.39
2022-12-16T18:42:04.321Z,0.49
2022-12-16T18:52:54.379Z,0.48
2022-12-16T19:03:47.868Z,0.41
2022-12-16T19:14:33.177Z,0.40
2022-12-16T19:25:17.823Z,0.47
2022-12-16T19:36:02.651Z,0.47
2022-12-16T19:46:48.174Z,0.64
2022-12-16T19:57:32.780Z,0.69
2022-12-16T20:08:17.596Z,0.47
2022-12-16T20:19:02.667Z,0.42
2022-12-16T20:29:47.539Z,0.29
2022-12-16T20:40:33.019Z,0.19
2022-12-16T21:02:33.235Z,-0.03
2022-12-16T21:13:25.783Z,0.01
2022-12-16T21:24:10.805Z,-0.00
2022-12-16T21:34:56.383Z,0.08
2022-12-16T21:45:41.675Z,-0.04
2022-12-16T21:56:28.698Z,-0.27
2022-12-16T22:07:13.790Z,-0.35
2022-12-16T22:17:58.978Z,-0.32
2022-12-16T22:28:44.063Z,-0.24
2022-12-16T22:39:29.192Z,-0.17
2022-12-16T22:50:14.003Z,-0.28
2022-12-16T23:12:01.325Z,-0.25
2022-12-16T23:22:45.945Z,-0.11
2022-12-16T23:33:31.153Z,-0.06
2022-12-16T23:44:16.053Z,0.00
2022-12-16T23:55:01.268Z,0.28
